createdAt,value
2019-06-26T00:00:00.171Z,19.75
2019-06-26T00:01:00.104Z,19.66
2019-06-26T00:02:00.111Z,19.66
2019-06-26T00:03:00.143Z,19.66
2019-06-26T00:04:00.124Z,19.66
2019-06-26T00:05:00.114Z,19.66
2019-06-26T00:06:00.126Z,19.8
2019-06-26T00:07:00.104Z,19.8
2019-06-26T00:08:00.112Z,19.8
2019-06-26T00:09:00.132Z,19.8
2019-06-26T00:10:00.098Z,19.8
2019-06-26T00:11:00.121Z,19.79
2019-06-26T00:12:00.097Z,19.79
2019-06-26T00:13:00.107Z,19.79
2019-06-26T00:14:00.146Z,19.79
2019-06-26T00:15:00.109Z,19.79
2019-06-26T00:16:00.094Z,19.65
2019-06-26T00:17:00.115Z,19.65
2019-06-26T00:18:00.093Z,19.65
2019-06-26T00:19:00.139Z,19.65
2019-06-26T00:20:00.128Z,19.65
2019-06-26T00:21:00.106Z,19.53
2019-06-26T00:22:00.120Z,19.53
2019-06-26T00:23:00.109Z,19.53
2019-06-26T00:24:00.217Z,19.53
2019-06-26T00:25:00.107Z,19.53
2019-06-26T00:26:00.096Z,19.53
2019-06-26T00:27:00.103Z,19.53
2019-06-26T00:28:00.108Z,19.53
2019-06-26T00:29:00.128Z,19.53
2019-06-26T00:30:00.109Z,19.53
2019-06-26T00:31:00.094Z,19.46
2019-06-26T00:32:00.093Z,19.46
2019-06-26T00:33:00.097Z,19.46
2019-06-26T00:34:00.124Z,19.46
2019-06-26T00:35:00.105Z,19.46
2019-06-26T00:36:00.101Z,19.32
2019-06-26T00:37:00.101Z,19.32
2019-06-26T00:38:00.103Z,19.32
2019-06-26T00:39:00.152Z,19.32
2019-06-26T00:40:00.106Z,19.32
2019-06-26T00:41:00.096Z,19.18
2019-06-26T00:42:00.097Z,19.18
2019-06-26T00:43:00.122Z,19.18
2019-06-26T00:44:00.311Z,19.18
2019-06-26T00:45:00.153Z,19.18
2019-06-26T00:46:00.105Z,19.23
2019-06-26T00:47:00.112Z,19.23
2019-06-26T00:48:00.094Z,19.23
2019-06-26T00:49:00.124Z,19.23
2019-06-26T00:50:00.115Z,19.23
2019-06-26T00:51:00.100Z,19.11
2019-06-26T00:52:00.102Z,19.11
2019-06-26T00:53:00.108Z,19.11
2019-06-26T00:54:00.141Z,19.11
2019-06-26T00:55:00.088Z,19.11
2019-06-26T00:56:00.096Z,19.08
2019-06-26T00:57:00.099Z,19.08
2019-06-26T00:58:00.104Z,19.08
2019-06-26T00:59:00.139Z,19.08
2019-06-26T01:00:00.101Z,19.08
2019-06-26T01:01:00.087Z,19.11
2019-06-26T01:02:00.123Z,19.11
2019-06-26T01:03:00.117Z,19.11
2019-06-26T01:04:00.142Z,19.11
2019-06-26T01:05:00.122Z,19.11
2019-06-26T01:06:00.118Z,19.11
2019-06-26T01:07:00.111Z,19.11
2019-06-26T01:08:00.122Z,19.11
2019-06-26T01:09:00.122Z,19.11
2019-06-26T01:10:00.134Z,19.11
2019-06-26T01:11:00.099Z,19.06
2019-06-26T01:12:00.201Z,19.06
2019-06-26T01:13:00.091Z,19.06
2019-06-26T01:14:00.151Z,19.06
2019-06-26T01:15:00.135Z,19.06
2019-06-26T01:16:00.094Z,18.87
2019-06-26T01:17:00.093Z,18.87
2019-06-26T01:18:00.101Z,18.87
2019-06-26T01:19:00.127Z,18.87
2019-06-26T01:20:00.106Z,18.87
2019-06-26T01:21:00.149Z,18.84
2019-06-26T01:22:00.096Z,18.84
2019-06-26T01:23:00.093Z,18.84
2019-06-26T01:24:00.130Z,18.84
2019-06-26T01:25:00.109Z,18.84
2019-06-26T01:26:00.100Z,18.84
2019-06-26T01:27:00.155Z,18.84
2019-06-26T01:28:00.093Z,18.84
2019-06-26T01:29:00.144Z,18.84
2019-06-26T01:30:01.191Z,18.84
2019-06-26T01:31:00.097Z,18.79
2019-06-26T01:32:00.104Z,18.79
2019-06-26T01:33:00.100Z,18.79
2019-06-26T01:34:00.132Z,18.79
2019-06-26T01:35:00.141Z,18.79
2019-06-26T01:36:00.110Z,18.79
2019-06-26T01:37:00.094Z,18.79
2019-06-26T01:38:00.092Z,18.79
2019-06-26T01:39:00.126Z,18.79
2019-06-26T01:40:00.099Z,18.79
2019-06-26T01:41:00.105Z,18.95
2019-06-26T01:42:00.089Z,18.95
2019-06-26T01:43:00.108Z,18.95
2019-06-26T01:44:13.502Z,18.95
2019-06-26T01:45:00.130Z,18.95
2019-06-26T01:46:00.137Z,18.88
2019-06-26T01:47:00.091Z,18.88
2019-06-26T01:48:00.097Z,18.88
2019-06-26T01:49:00.126Z,18.88
2019-06-26T01:50:00.093Z,18.88
2019-06-26T01:51:00.109Z,18.99
2019-06-26T01:52:00.093Z,18.99
2019-06-26T01:53:00.115Z,18.99
2019-06-26T01:54:00.130Z,18.99
2019-06-26T01:55:00.104Z,18.99
2019-06-26T01:56:00.107Z,19.04
2019-06-26T01:57:00.111Z,19.04
2019-06-26T01:58:00.093Z,19.04
2019-06-26T01:59:00.151Z,19.04
2019-06-26T02:00:00.123Z,19.04
2019-06-26T02:01:00.136Z,19.03
2019-06-26T02:02:00.091Z,19.03
2019-06-26T02:03:00.115Z,19.03
2019-06-26T02:04:00.143Z,19.03
2019-06-26T02:05:00.109Z,19.03
2019-06-26T02:06:00.130Z,19.14
2019-06-26T02:07:00.098Z,19.14
2019-06-26T02:08:00.114Z,19.14
2019-06-26T02:09:00.134Z,19.14
2019-06-26T02:10:00.238Z,19.14
2019-06-26T02:11:00.101Z,19.07
2019-06-26T02:12:00.578Z,19.07
2019-06-26T02:13:00.108Z,19.07
2019-06-26T02:14:00.127Z,19.07
2019-06-26T02:15:00.139Z,19.07
2019-06-26T02:16:00.103Z,19.15
2019-06-26T02:17:00.108Z,19.15
2019-06-26T02:18:00.107Z,19.15
2019-06-26T02:19:00.128Z,19.15
2019-06-26T02:20:00.119Z,19.15
2019-06-26T02:21:00.102Z,19.17
2019-06-26T02:22:00.106Z,19.17
2019-06-26T02:23:00.098Z,19.17
2019-06-26T02:24:00.124Z,19.17
2019-06-26T02:25:00.108Z,19.17
2019-06-26T02:26:00.137Z,19.27
2019-06-26T02:27:00.097Z,19.27
2019-06-26T02:28:00.097Z,19.27
2019-06-26T02:29:00.133Z,19.27
2019-06-26T02:30:00.130Z,19.27
2019-06-26T02:31:00.100Z,19.24
2019-06-26T02:32:00.121Z,19.24
2019-06-26T02:33:00.097Z,19.24
2019-06-26T02:34:00.162Z,19.24
2019-06-26T02:35:00.208Z,19.24
2019-06-26T02:36:00.147Z,19.21
2019-06-26T02:37:00.152Z,19.21
2019-06-26T02:38:00.101Z,19.21
2019-06-26T02:39:00.129Z,19.21
2019-06-26T02:40:00.134Z,19.21
2019-06-26T02:41:00.104Z,19.19
2019-06-26T02:42:00.124Z,19.19
2019-06-26T02:43:00.123Z,19.19
2019-06-26T02:44:00.132Z,19.19
2019-06-26T02:45:00.093Z,19.19
2019-06-26T02:46:00.159Z,19.3
2019-06-26T02:47:17.482Z,19.3
2019-06-26T02:48:00.114Z,19.3
2019-06-26T02:49:05.122Z,19.3
2019-06-26T02:50:00.166Z,19.3
2019-06-26T02:51:00.111Z,19.27
2019-06-26T02:52:00.114Z,19.27
2019-06-26T02:53:00.122Z,19.27
2019-06-26T02:54:00.126Z,19.27
2019-06-26T02:55:00.126Z,19.27
2019-06-26T02:56:00.105Z,19.31
2019-06-26T02:57:00.112Z,19.31
2019-06-26T02:58:00.103Z,19.31
2019-06-26T02:59:00.154Z,19.31
2019-06-26T03:00:00.124Z,19.31
2019-06-26T03:01:00.115Z,19.32
2019-06-26T03:02:00.085Z,19.32
2019-06-26T03:03:00.102Z,19.32
2019-06-26T03:04:00.158Z,19.32
2019-06-26T03:05:00.108Z,19.32
2019-06-26T03:06:00.101Z,19.27
2019-06-26T03:07:00.100Z,19.27
2019-06-26T03:08:00.101Z,19.27
2019-06-26T03:09:00.116Z,19.27
2019-06-26T03:10:00.141Z,19.27
2019-06-26T03:11:00.107Z,19.19
2019-06-26T03:12:00.348Z,19.19
2019-06-26T03:13:00.115Z,19.19
2019-06-26T03:14:00.146Z,19.19
2019-06-26T03:15:08.618Z,19.19
2019-06-26T03:16:00.102Z,19.23
2019-06-26T03:17:00.097Z,19.23
2019-06-26T03:18:00.109Z,19.23
2019-06-26T03:19:00.125Z,19.23
2019-06-26T03:20:00.122Z,19.23
2019-06-26T03:21:00.091Z,19.24
2019-06-26T03:22:00.094Z,19.24
2019-06-26T03:23:00.085Z,19.24
2019-06-26T03:24:00.132Z,19.24
2019-06-26T03:25:00.101Z,19.24
2019-06-26T03:26:00.091Z,19.1
2019-06-26T03:27:00.099Z,19.1
2019-06-26T03:28:00.098Z,19.1
2019-06-26T03:29:00.135Z,19.1
2019-06-26T03:30:00.105Z,19.1
2019-06-26T03:31:00.112Z,18.95
2019-06-26T03:32:00.087Z,18.95
2019-06-26T03:33:00.106Z,18.95
2019-06-26T03:34:00.137Z,18.95
2019-06-26T03:35:00.102Z,18.95
2019-06-26T03:36:00.095Z,18.8
2019-06-26T03:37:00.107Z,18.8
2019-06-26T03:38:00.103Z,18.8
2019-06-26T03:39:00.126Z,18.8
2019-06-26T03:40:00.115Z,18.8
2019-06-26T03:41:00.116Z,18.64
2019-06-26T03:42:00.103Z,18.64
2019-06-26T03:43:00.093Z,18.64
2019-06-26T03:44:00.134Z,18.64
2019-06-26T03:45:00.111Z,18.64
2019-06-26T03:46:00.102Z,18.58
2019-06-26T03:47:00.097Z,18.58
2019-06-26T03:48:00.112Z,18.58
2019-06-26T03:49:00.142Z,18.58
2019-06-26T03:50:00.112Z,18.58
2019-06-26T03:51:00.105Z,18.57
2019-06-26T03:52:01.140Z,18.57
2019-06-26T03:53:00.116Z,18.57
2019-06-26T03:54:00.127Z,18.57
2019-06-26T03:55:00.127Z,18.57
2019-06-26T03:56:00.092Z,18.71
2019-06-26T03:57:00.097Z,18.71
2019-06-26T03:58:00.193Z,18.71
2019-06-26T03:59:00.126Z,18.71
2019-06-26T04:00:00.136Z,18.71
2019-06-26T04:01:00.123Z,18.68
2019-06-26T04:02:00.106Z,18.68
2019-06-26T04:03:00.101Z,18.68
2019-06-26T04:04:00.128Z,18.68
2019-06-26T04:05:00.293Z,18.68
2019-06-26T04:06:00.106Z,18.67
2019-06-26T04:07:00.288Z,18.67
2019-06-26T04:08:00.110Z,18.67
2019-06-26T04:09:00.112Z,18.67
2019-06-26T04:10:00.101Z,18.67
2019-06-26T04:11:00.128Z,18.64
2019-06-26T04:12:00.092Z,18.64
2019-06-26T04:13:00.326Z,18.64
2019-06-26T04:14:00.146Z,18.64
2019-06-26T04:15:00.103Z,18.64
2019-06-26T04:16:00.110Z,18.59
2019-06-26T04:17:00.099Z,18.59
2019-06-26T04:18:00.109Z,18.59
2019-06-26T04:19:00.155Z,18.59
2019-06-26T04:20:00.140Z,18.59
2019-06-26T04:21:00.104Z,18.73
2019-06-26T04:22:06.172Z,18.73
2019-06-26T04:23:00.115Z,18.73
2019-06-26T04:24:00.116Z,18.73
2019-06-26T04:25:00.103Z,18.73
2019-06-26T04:26:00.099Z,18.81
2019-06-26T04:27:00.101Z,18.81
2019-06-26T04:28:00.203Z,18.81
2019-06-26T04:29:00.137Z,18.81
2019-06-26T04:30:00.193Z,18.81
2019-06-26T04:31:00.102Z,18.94
2019-06-26T04:32:00.102Z,18.94
2019-06-26T04:33:00.100Z,18.94
2019-06-26T04:34:00.141Z,18.94
2019-06-26T04:35:00.125Z,18.94
2019-06-26T04:36:00.093Z,18.98
2019-06-26T04:37:00.098Z,18.98
2019-06-26T04:38:00.151Z,18.98
2019-06-26T04:39:00.133Z,18.98
2019-06-26T04:40:00.102Z,18.98
2019-06-26T04:41:00.100Z,19.25
2019-06-26T04:42:00.085Z,19.25
2019-06-26T04:43:00.088Z,19.25
2019-06-26T04:44:00.128Z,19.25
2019-06-26T04:45:00.132Z,19.25
2019-06-26T04:46:00.094Z,19.23
2019-06-26T04:47:00.101Z,19.23
2019-06-26T04:48:00.105Z,19.23
2019-06-26T04:49:00.133Z,19.23
2019-06-26T04:50:00.099Z,19.23
2019-06-26T04:51:00.092Z,19.27
2019-06-26T04:52:00.097Z,19.27
2019-06-26T04:53:00.098Z,19.27
2019-06-26T04:54:00.112Z,19.27
2019-06-26T04:55:00.110Z,19.27
2019-06-26T04:56:00.100Z,19.34
2019-06-26T04:57:00.114Z,19.34
2019-06-26T04:58:00.109Z,19.34
2019-06-26T04:59:01.128Z,19.34
2019-06-26T05:00:00.110Z,19.34
2019-06-26T05:01:00.100Z,19.42
2019-06-26T05:02:00.089Z,19.42
2019-06-26T05:03:00.109Z,19.42
2019-06-26T05:04:00.109Z,19.42
2019-06-26T05:05:00.147Z,19.42
2019-06-26T05:06:00.096Z,19.34
2019-06-26T05:07:00.082Z,19.34
2019-06-26T05:08:00.103Z,19.34
2019-06-26T05:09:00.122Z,19.34
2019-06-26T05:10:00.135Z,19.34
2019-06-26T05:11:00.115Z,19.36
2019-06-26T05:12:00.088Z,19.36
2019-06-26T05:13:00.105Z,19.36
2019-06-26T05:14:00.130Z,19.36
2019-06-26T05:15:00.109Z,19.36
2019-06-26T05:16:13.637Z,19.35
2019-06-26T05:17:00.090Z,19.35
2019-06-26T05:18:00.103Z,19.35
2019-06-26T05:19:00.126Z,19.35
2019-06-26T05:20:00.211Z,19.35
2019-06-26T05:21:00.109Z,19.1
2019-06-26T05:22:00.091Z,19.1
2019-06-26T05:23:00.092Z,19.1
2019-06-26T05:24:00.123Z,19.1
2019-06-26T05:25:00.184Z,19.1
2019-06-26T05:26:00.085Z,19.02
2019-06-26T05:27:00.132Z,19.02
2019-06-26T05:28:00.091Z,19.02
2019-06-26T05:29:00.126Z,19.02
2019-06-26T05:30:00.279Z,19.02
2019-06-26T05:31:00.105Z,19.04
2019-06-26T05:32:00.084Z,19.04
2019-06-26T05:33:00.143Z,19.04
2019-06-26T05:34:00.117Z,19.04
2019-06-26T05:35:00.094Z,19.04
2019-06-26T05:36:00.093Z,19.02
2019-06-26T05:37:00.089Z,19.02
2019-06-26T05:38:00.078Z,19.02
2019-06-26T05:39:00.130Z,19.02
2019-06-26T05:40:00.102Z,19.02
2019-06-26T05:41:00.471Z,18.72
2019-06-26T05:42:00.102Z,18.72
2019-06-26T05:43:00.103Z,18.72
2019-06-26T05:44:00.122Z,18.72
2019-06-26T05:45:00.110Z,18.72
2019-06-26T05:46:00.149Z,18.64
2019-06-26T05:47:00.104Z,18.64
2019-06-26T05:48:00.089Z,18.64
2019-06-26T05:49:00.128Z,18.64
2019-06-26T05:50:00.089Z,18.64
2019-06-26T05:51:00.096Z,18.27
2019-06-26T05:52:02.142Z,18.27
2019-06-26T05:53:00.109Z,18.27
2019-06-26T05:54:00.138Z,18.27
2019-06-26T05:55:00.114Z,18.27
2019-06-26T05:56:00.090Z,17.92
2019-06-26T05:57:00.089Z,17.92
2019-06-26T05:58:00.098Z,17.92
2019-06-26T05:59:00.125Z,17.92
2019-06-26T06:00:00.158Z,17.92
2019-06-26T06:01:00.111Z,17.5
2019-06-26T06:02:00.111Z,17.5
2019-06-26T06:03:00.094Z,17.5
2019-06-26T06:04:00.117Z,17.5
2019-06-26T06:05:00.098Z,17.5
2019-06-26T06:06:00.097Z,17.59
2019-06-26T06:07:00.115Z,17.59
2019-06-26T06:08:00.098Z,17.59
2019-06-26T06:09:00.122Z,17.59
2019-06-26T06:10:00.100Z,17.59
2019-06-26T06:11:00.087Z,17.5
2019-06-26T06:12:00.108Z,17.5
2019-06-26T06:13:00.096Z,17.5
2019-06-26T06:14:00.116Z,17.5
2019-06-26T06:15:00.144Z,17.5
2019-06-26T06:16:00.098Z,17.41
2019-06-26T06:17:00.104Z,17.41
2019-06-26T06:18:00.084Z,17.41
2019-06-26T06:19:00.131Z,17.41
2019-06-26T06:20:00.084Z,17.41
2019-06-26T06:21:00.102Z,17.58
2019-06-26T06:22:00.096Z,17.58
2019-06-26T06:23:00.131Z,17.58
2019-06-26T06:24:00.122Z,17.58
2019-06-26T06:25:00.121Z,17.58
2019-06-26T06:26:00.090Z,17.7
2019-06-26T06:27:00.099Z,17.7
2019-06-26T06:28:00.090Z,17.7
2019-06-26T06:29:00.116Z,17.7
2019-06-26T06:30:00.092Z,17.7
2019-06-26T06:31:00.350Z,17.66
2019-06-26T06:32:00.090Z,17.66
2019-06-26T06:33:00.083Z,17.66
2019-06-26T06:34:00.124Z,17.66
2019-06-26T06:35:00.205Z,17.66
2019-06-26T06:36:00.101Z,17.62
2019-06-26T06:37:00.091Z,17.62
2019-06-26T06:38:00.107Z,17.62
2019-06-26T06:39:00.113Z,17.62
2019-06-26T06:40:00.111Z,17.62
2019-06-26T06:41:00.093Z,17.78
2019-06-26T06:42:00.091Z,17.78
2019-06-26T06:43:00.244Z,17.78
2019-06-26T06:44:00.134Z,17.78
2019-06-26T06:45:00.140Z,17.78
2019-06-26T06:46:00.110Z,17.46
2019-06-26T06:47:04.117Z,17.46
2019-06-26T06:48:00.122Z,17.46
2019-06-26T06:49:00.111Z,17.46
2019-06-26T06:50:00.096Z,17.46
2019-06-26T06:51:00.101Z,17.58
2019-06-26T06:52:00.094Z,17.58
2019-06-26T06:53:00.104Z,17.58
2019-06-26T06:54:00.140Z,17.58
2019-06-26T06:55:00.097Z,17.58
2019-06-26T06:56:00.106Z,17.61
2019-06-26T06:57:00.088Z,17.61
2019-06-26T06:58:00.102Z,17.61
2019-06-26T06:59:00.109Z,17.61
2019-06-26T07:00:00.105Z,17.61
2019-06-26T07:01:00.092Z,17.43
2019-06-26T07:02:00.113Z,17.43
2019-06-26T07:03:00.097Z,17.43
2019-06-26T07:04:00.121Z,17.43
2019-06-26T07:05:00.109Z,17.43
2019-06-26T07:06:00.087Z,17.6
2019-06-26T07:07:00.088Z,17.6
2019-06-26T07:08:00.099Z,17.6
2019-06-26T07:09:00.122Z,17.6
2019-06-26T07:10:00.095Z,17.6
2019-06-26T07:11:00.098Z,17.54
2019-06-26T07:12:00.111Z,17.54
2019-06-26T07:13:00.082Z,17.54
2019-06-26T07:14:00.122Z,17.54
2019-06-26T07:15:00.097Z,17.54
2019-06-26T07:16:00.102Z,17.71
2019-06-26T07:17:01.484Z,17.71
2019-06-26T07:18:00.100Z,17.71
2019-06-26T07:19:00.120Z,17.71
2019-06-26T07:20:00.097Z,17.71
2019-06-26T07:21:00.093Z,17.67
2019-06-26T07:22:00.095Z,17.67
2019-06-26T07:23:00.088Z,17.67
2019-06-26T07:24:00.112Z,17.67
2019-06-26T07:25:00.084Z,17.67
2019-06-26T07:26:00.092Z,17.83
2019-06-26T07:27:00.078Z,17.83
2019-06-26T07:28:01.870Z,17.83
2019-06-26T07:29:00.224Z,17.83
2019-06-26T07:30:00.097Z,17.83
2019-06-26T07:31:00.093Z,17.65
2019-06-26T07:32:00.116Z,17.65
2019-06-26T07:33:00.099Z,17.65
2019-06-26T07:34:00.113Z,17.65
2019-06-26T07:35:00.120Z,17.65
2019-06-26T07:36:00.123Z,17.47
2019-06-26T07:37:00.090Z,17.47
2019-06-26T07:38:00.484Z,17.47
2019-06-26T07:39:00.208Z,17.47
2019-06-26T07:40:01.998Z,17.47
2019-06-26T07:41:00.124Z,17.42
2019-06-26T07:42:00.106Z,17.42
2019-06-26T07:43:00.094Z,17.42
2019-06-26T07:44:00.134Z,17.42
2019-06-26T07:45:00.109Z,17.42
2019-06-26T07:46:00.092Z,18.02
2019-06-26T07:47:00.327Z,18.02
2019-06-26T07:48:00.075Z,18.02
2019-06-26T07:49:00.122Z,18.02
2019-06-26T07:50:00.192Z,18.02
2019-06-26T07:51:00.097Z,17.37
2019-06-26T07:52:00.113Z,17.37
2019-06-26T07:53:00.111Z,17.37
2019-06-26T07:54:00.120Z,17.37
2019-06-26T07:55:00.283Z,17.37
2019-06-26T07:56:00.199Z,17.56
2019-06-26T07:57:00.118Z,17.56
2019-06-26T07:58:00.098Z,17.56
2019-06-26T07:59:00.119Z,17.56
2019-06-26T08:00:00.267Z,17.56
2019-06-26T08:01:00.128Z,17.63
2019-06-26T08:02:00.101Z,17.63
2019-06-26T08:03:03.149Z,17.63
2019-06-26T08:04:00.114Z,17.63
2019-06-26T08:05:00.165Z,17.63
2019-06-26T08:06:00.101Z,17.44
2019-06-26T08:07:00.097Z,17.44
2019-06-26T08:08:00.099Z,17.44
2019-06-26T08:09:00.115Z,17.44
2019-06-26T08:10:00.106Z,17.44
2019-06-26T08:11:00.101Z,17.44
2019-06-26T08:12:00.149Z,17.44
2019-06-26T08:13:00.265Z,17.44
2019-06-26T08:14:00.158Z,17.44
2019-06-26T08:15:00.142Z,17.44
2019-06-26T08:16:00.097Z,17.44
2019-06-26T08:17:00.118Z,17.44
2019-06-26T08:18:01.441Z,17.44
2019-06-26T08:19:00.150Z,17.44
2019-06-26T08:20:00.096Z,17.44
2019-06-26T08:21:11.283Z,17.09
2019-06-26T08:22:00.111Z,17.09
2019-06-26T08:23:00.098Z,17.09
2019-06-26T08:24:00.122Z,17.09
2019-06-26T08:25:00.093Z,17.09
2019-06-26T08:26:00.091Z,17.39
2019-06-26T08:27:00.116Z,17.39
2019-06-26T08:28:00.117Z,17.39
2019-06-26T08:29:00.134Z,17.39
2019-06-26T08:30:00.135Z,17.39
2019-06-26T08:31:00.116Z,17.6
2019-06-26T08:32:00.097Z,17.6
2019-06-26T08:33:00.119Z,17.6
2019-06-26T08:34:00.117Z,17.6
2019-06-26T08:35:00.101Z,17.6
2019-06-26T08:36:00.122Z,17.48
2019-06-26T08:37:00.109Z,17.48
2019-06-26T08:38:10.128Z,17.48
2019-06-26T08:39:00.190Z,17.48
2019-06-26T08:40:00.093Z,17.48
2019-06-26T08:41:00.082Z,17.48
2019-06-26T08:42:00.232Z,17.48
2019-06-26T08:43:00.104Z,17.48
2019-06-26T08:44:00.148Z,17.48
2019-06-26T08:45:00.141Z,17.48
2019-06-26T08:46:00.098Z,17.79
2019-06-26T08:47:00.107Z,17.79
2019-06-26T08:48:13.366Z,17.79
2019-06-26T08:49:00.110Z,17.79
2019-06-26T08:50:00.118Z,17.79
2019-06-26T08:51:00.101Z,17.87
2019-06-26T08:52:00.112Z,17.87
2019-06-26T08:53:00.093Z,17.87
2019-06-26T08:54:00.147Z,17.87
2019-06-26T08:55:00.141Z,17.87
2019-06-26T08:56:00.112Z,17.87
2019-06-26T08:57:00.224Z,17.87
2019-06-26T08:58:00.115Z,17.87
2019-06-26T08:59:00.155Z,17.87
2019-06-26T09:00:00.143Z,17.87
2019-06-26T09:01:00.118Z,17.72
2019-06-26T09:02:00.254Z,17.72
2019-06-26T09:03:00.090Z,17.72
2019-06-26T09:04:00.182Z,17.72
2019-06-26T09:05:00.128Z,17.72
2019-06-26T09:06:00.115Z,17.72
2019-06-26T09:07:00.100Z,17.72
2019-06-26T09:08:00.185Z,17.72
2019-06-26T09:09:00.129Z,17.72
2019-06-26T09:10:00.103Z,17.72
2019-06-26T09:11:00.118Z,18.49
2019-06-26T09:12:00.092Z,18.49
2019-06-26T09:13:00.097Z,18.49
2019-06-26T09:14:00.147Z,18.49
2019-06-26T09:15:00.117Z,18.49
2019-06-26T09:16:00.138Z,17.97
2019-06-26T09:17:00.106Z,17.97
2019-06-26T09:18:00.113Z,17.97
2019-06-26T09:19:00.142Z,17.97
2019-06-26T09:20:00.096Z,17.97
2019-06-26T09:21:00.099Z,17.92
2019-06-26T09:22:00.130Z,17.92
2019-06-26T09:23:00.117Z,17.92
2019-06-26T09:24:00.138Z,17.92
2019-06-26T09:25:00.110Z,17.92
2019-06-26T09:26:00.120Z,18.06
2019-06-26T09:27:00.106Z,18.06
2019-06-26T09:28:00.098Z,18.06
2019-06-26T09:29:00.234Z,18.06
2019-06-26T09:30:00.141Z,18.06
2019-06-26T09:31:00.126Z,18.01
2019-06-26T09:32:00.086Z,18.01
2019-06-26T09:33:00.102Z,18.01
2019-06-26T09:34:00.133Z,18.01
2019-06-26T09:35:00.111Z,18.01
2019-06-26T09:36:00.127Z,18.01
2019-06-26T09:37:00.106Z,18.01
2019-06-26T09:38:00.146Z,18.01
2019-06-26T09:39:00.131Z,18.01
2019-06-26T09:40:00.178Z,18.01
2019-06-26T09:41:00.107Z,18.15
2019-06-26T09:42:00.118Z,18.15
2019-06-26T09:43:00.119Z,18.15
2019-06-26T09:44:00.148Z,18.15
2019-06-26T09:45:00.093Z,18.15
2019-06-26T09:46:00.084Z,17.59
2019-06-26T09:47:00.085Z,17.59
2019-06-26T09:48:00.093Z,17.59
2019-06-26T09:49:00.119Z,17.59
2019-06-26T09:50:00.113Z,17.59
2019-06-26T09:51:00.098Z,17.36
2019-06-26T09:52:00.090Z,17.36
2019-06-26T09:53:00.166Z,17.36
2019-06-26T09:54:00.131Z,17.36
2019-06-26T09:55:00.100Z,17.36
2019-06-26T09:56:00.101Z,17.54
2019-06-26T09:57:00.116Z,17.54
2019-06-26T09:58:00.194Z,17.54
2019-06-26T09:59:00.128Z,17.54
2019-06-26T10:00:00.151Z,17.54
2019-06-26T10:01:00.113Z,17.6
2019-06-26T10:02:00.098Z,17.6
2019-06-26T10:03:00.105Z,17.6
2019-06-26T10:04:00.157Z,17.6
2019-06-26T10:05:00.122Z,17.6
2019-06-26T10:06:00.136Z,17.91
2019-06-26T10:07:00.172Z,17.91
2019-06-26T10:08:00.087Z,17.91
2019-06-26T10:09:00.134Z,17.91
2019-06-26T10:10:00.135Z,17.91
2019-06-26T10:11:00.106Z,17.98
2019-06-26T10:12:00.095Z,17.98
2019-06-26T10:13:00.133Z,17.98
2019-06-26T10:14:00.141Z,17.98
2019-06-26T10:15:00.102Z,17.98
2019-06-26T10:16:00.661Z,17.96
2019-06-26T10:17:00.117Z,17.96
2019-06-26T10:18:00.111Z,17.96
2019-06-26T10:19:09.866Z,17.96
2019-06-26T10:20:00.103Z,17.96
2019-06-26T10:21:00.151Z,17.89
2019-06-26T10:22:00.102Z,17.89
2019-06-26T10:23:00.194Z,17.89
2019-06-26T10:24:00.151Z,17.89
2019-06-26T10:25:00.136Z,17.89
2019-06-26T10:26:00.322Z,17.89
2019-06-26T10:27:00.147Z,17.89
2019-06-26T10:28:00.099Z,17.89
2019-06-26T10:29:00.138Z,17.89
2019-06-26T10:30:00.155Z,17.89
2019-06-26T10:31:00.114Z,17.4
2019-06-26T10:32:00.163Z,17.4
2019-06-26T10:33:00.098Z,17.4
2019-06-26T10:34:00.127Z,17.4
2019-06-26T10:35:00.173Z,17.4
2019-06-26T10:36:00.120Z,17.56
2019-06-26T10:37:00.099Z,17.56
2019-06-26T10:38:00.084Z,17.56
2019-06-26T10:39:00.121Z,17.56
2019-06-26T10:40:00.106Z,17.56
2019-06-26T10:41:00.106Z,17.56
2019-06-26T10:42:00.117Z,17.56
2019-06-26T10:43:00.132Z,17.56
2019-06-26T10:44:00.151Z,17.56
2019-06-26T10:45:00.176Z,17.56
2019-06-26T10:46:00.086Z,17.3
2019-06-26T10:47:00.096Z,17.3
2019-06-26T10:48:00.096Z,17.3
2019-06-26T10:49:00.144Z,17.3
2019-06-26T10:50:00.125Z,17.3
2019-06-26T10:51:00.105Z,17.3
2019-06-26T10:52:00.109Z,17.3
2019-06-26T10:53:00.127Z,17.3
2019-06-26T10:54:00.156Z,17.3
2019-06-26T10:55:00.234Z,17.3
2019-06-26T10:56:00.089Z,16.95
2019-06-26T10:57:00.095Z,16.95
2019-06-26T10:58:00.169Z,16.95
2019-06-26T10:59:00.146Z,16.95
2019-06-26T11:00:00.133Z,16.95
2019-06-26T11:01:00.097Z,16.84
2019-06-26T11:02:00.119Z,16.84
2019-06-26T11:03:00.114Z,16.84
2019-06-26T11:04:00.125Z,16.84
2019-06-26T11:05:00.116Z,16.84
2019-06-26T11:06:00.109Z,16.84
2019-06-26T11:07:00.112Z,16.84
2019-06-26T11:08:00.107Z,16.84
2019-06-26T11:09:00.108Z,16.84
2019-06-26T11:10:00.087Z,16.84
2019-06-26T11:11:00.102Z,16.9
2019-06-26T11:12:00.252Z,16.9
2019-06-26T11:13:00.107Z,16.9
2019-06-26T11:14:00.128Z,16.9
2019-06-26T11:15:00.133Z,16.9
2019-06-26T11:16:00.081Z,16.56
2019-06-26T11:17:00.081Z,16.56
2019-06-26T11:18:00.088Z,16.56
2019-06-26T11:19:00.146Z,16.56
2019-06-26T11:20:00.095Z,16.56
2019-06-26T11:21:00.102Z,16.76
2019-06-26T11:22:00.128Z,16.76
2019-06-26T11:23:00.103Z,16.76
2019-06-26T11:24:00.133Z,16.76
2019-06-26T11:25:00.134Z,16.76
2019-06-26T11:26:00.108Z,16.76
2019-06-26T11:27:00.088Z,16.76
2019-06-26T11:28:00.110Z,16.76
2019-06-26T11:29:00.137Z,16.76
2019-06-26T11:30:00.115Z,16.76
2019-06-26T11:31:00.094Z,16.37
2019-06-26T11:32:00.093Z,16.37
2019-06-26T11:33:00.099Z,16.37
2019-06-26T11:34:00.188Z,16.37
2019-06-26T11:35:00.100Z,16.37
2019-06-26T11:36:00.113Z,16.37
2019-06-26T11:37:04.037Z,16.37
2019-06-26T11:38:00.117Z,16.37
2019-06-26T11:39:00.117Z,16.37
2019-06-26T11:40:00.137Z,16.37
2019-06-26T11:41:01.889Z,16.45
2019-06-26T11:42:00.094Z,16.45
2019-06-26T11:43:00.104Z,16.45
2019-06-26T11:44:00.123Z,16.45
2019-06-26T11:45:00.100Z,16.45
2019-06-26T11:46:00.108Z,16.73
2019-06-26T11:47:00.101Z,16.73
2019-06-26T11:48:00.092Z,16.73
2019-06-26T11:49:00.127Z,16.73
2019-06-26T11:50:00.537Z,16.73
2019-06-26T11:51:00.107Z,16.61
2019-06-26T11:52:00.106Z,16.61
2019-06-26T11:53:00.089Z,16.61
2019-06-26T11:54:00.139Z,16.61
2019-06-26T11:55:02.847Z,16.61
2019-06-26T11:56:00.085Z,16.31
2019-06-26T11:57:00.112Z,16.31
2019-06-26T11:58:00.095Z,16.31
2019-06-26T11:59:00.129Z,16.31
2019-06-26T12:00:00.098Z,16.31
2019-06-26T12:01:00.095Z,16.31
2019-06-26T12:02:00.086Z,16.31
2019-06-26T12:03:00.094Z,16.31
2019-06-26T12:04:00.120Z,16.31
2019-06-26T12:05:00.114Z,16.31
2019-06-26T12:06:12.222Z,16.45
2019-06-26T12:07:00.114Z,16.45
2019-06-26T12:08:00.121Z,16.45
2019-06-26T12:09:00.123Z,16.45
2019-06-26T12:10:00.170Z,16.45
2019-06-26T12:11:00.108Z,17.04
2019-06-26T12:12:00.118Z,17.04
2019-06-26T12:13:03.796Z,17.04
2019-06-26T12:14:00.141Z,17.04
2019-06-26T12:15:00.117Z,17.04
2019-06-26T12:16:00.139Z,17.71
2019-06-26T12:17:00.100Z,17.71
2019-06-26T12:18:00.111Z,17.71
2019-06-26T12:19:00.134Z,17.71
2019-06-26T12:20:13.537Z,17.71
2019-06-26T12:21:00.111Z,17.71
2019-06-26T12:22:00.107Z,17.71
2019-06-26T12:23:00.103Z,17.71
2019-06-26T12:24:00.127Z,17.71
2019-06-26T12:25:00.248Z,17.71
2019-06-26T12:26:00.102Z,16.97
2019-06-26T12:27:00.082Z,16.97
2019-06-26T12:28:00.106Z,16.97
2019-06-26T12:29:00.139Z,16.97
2019-06-26T12:30:00.123Z,16.97
2019-06-26T12:31:00.116Z,16.69
2019-06-26T12:32:00.236Z,16.69
2019-06-26T12:33:03.178Z,16.69
2019-06-26T12:34:00.126Z,16.69
2019-06-26T12:35:00.206Z,16.69
2019-06-26T12:36:00.164Z,16.69
2019-06-26T12:37:00.128Z,16.69
2019-06-26T12:38:00.133Z,16.69
2019-06-26T12:39:00.148Z,16.69
2019-06-26T12:40:00.390Z,16.69
2019-06-26T12:41:00.121Z,16.92
2019-06-26T12:42:00.085Z,16.92
2019-06-26T12:43:00.094Z,16.92
2019-06-26T12:44:00.182Z,16.92
2019-06-26T12:45:00.155Z,16.92
2019-06-26T12:46:00.106Z,16.4
2019-06-26T12:47:00.196Z,16.4
2019-06-26T12:48:00.106Z,16.4
2019-06-26T12:49:00.151Z,16.4
2019-06-26T12:50:00.106Z,16.4
2019-06-26T12:51:00.107Z,16.83
2019-06-26T12:52:00.133Z,16.83
2019-06-26T12:53:00.126Z,16.83
2019-06-26T12:54:00.166Z,16.83
2019-06-26T12:55:00.130Z,16.83